createdAt,value
2018-04-20T00:04:26.699Z,18.39
2018-04-20T00:09:28.756Z,18.18
2018-04-20T00:14:30.067Z,18.06
2018-04-20T00:19:31.403Z,17.96
2018-04-20T00:24:32.739Z,18.15
2018-04-20T00:29:34.053Z,17.84
2018-04-20T00:34:36.303Z,17.67
2018-04-20T00:39:37.623Z,17.65
2018-04-20T00:44:38.951Z,17.70
2018-04-20T00:49:40.999Z,17.72
2018-04-20T00:54:42.326Z,17.67
2018-04-20T00:59:43.638Z,17.73
2018-04-20T01:04:45.668Z,17.50
2018-04-20T01:09:46.957Z,17.21
2018-04-20T01:14:48.266Z,17.08
2018-04-20T01:19:49.587Z,17.11
2018-04-20T01:24:50.919Z,16.94
2018-04-20T01:29:52.237Z,17.06
2018-04-20T01:34:53.537Z,17.07
2018-04-20T01:39:54.838Z,17.00
2018-04-20T01:44:56.137Z,17.10
2018-04-20T01:49:58.193Z,16.97
2018-04-20T01:54:59.498Z,16.91
2018-04-20T02:00:00.811Z,17.13
2018-04-20T02:05:02.129Z,17.24
2018-04-20T02:10:03.458Z,17.19
2018-04-20T02:15:04.797Z,17.00
2018-04-20T02:20:06.844Z,17.00
2018-04-20T02:25:08.162Z,16.98
2018-04-20T02:30:09.502Z,16.87
2018-04-20T02:35:10.804Z,16.35
2018-04-20T02:40:12.121Z,16.52
2018-04-20T02:45:13.418Z,16.46
2018-04-20T02:50:14.754Z,16.37
2018-04-20T02:55:16.069Z,15.94
2018-04-20T03:00:17.375Z,16.14
2018-04-20T03:05:18.670Z,16.13
2018-04-20T03:10:20.011Z,16.32
2018-04-20T03:15:21.314Z,16.33
2018-04-20T03:20:22.617Z,16.25
2018-04-20T03:25:23.925Z,16.31
2018-04-20T03:30:25.227Z,16.21
2018-04-20T03:35:26.543Z,16.01
2018-04-20T03:40:28.581Z,16.01
2018-04-20T03:45:29.896Z,16.04
2018-04-20T03:50:31.198Z,16.05
2018-04-20T03:55:32.506Z,16.02
2018-04-20T04:00:34.534Z,16.07
2018-04-20T04:05:35.851Z,16.01
2018-04-20T04:10:37.167Z,15.99
2018-04-20T04:15:38.541Z,15.91
2018-04-20T04:26:44.899Z,15.80
2018-04-20T04:31:46.189Z,15.89
2018-04-20T04:36:47.475Z,15.96
2018-04-20T04:41:48.766Z,15.99
2018-04-20T04:46:50.058Z,16.06
2018-04-20T04:51:51.442Z,16.19
2018-04-20T04:56:52.740Z,16.22
2018-04-20T05:01:54.056Z,16.29
2018-04-20T05:06:55.341Z,16.38
2018-04-20T05:11:56.633Z,16.54
2018-04-20T05:16:57.945Z,16.65
2018-04-20T05:22:00.002Z,16.89
2018-04-20T05:27:01.308Z,17.09
2018-04-20T05:32:02.658Z,17.38
2018-04-20T05:37:03.966Z,17.60
2018-04-20T05:42:05.296Z,17.91
2018-04-20T05:47:06.636Z,18.17
2018-04-20T05:52:07.976Z,18.45
2018-04-20T05:57:09.306Z,18.68
2018-04-20T06:02:10.640Z,18.98
2018-04-20T06:07:11.961Z,19.18
2018-04-20T06:12:14.018Z,19.41
2018-04-20T06:17:15.347Z,19.56
2018-04-20T06:22:16.681Z,19.85
2018-04-20T06:27:18.019Z,20.11
2018-04-20T06:32:19.341Z,20.31
2018-04-20T06:37:20.637Z,20.61
2018-04-20T06:42:21.937Z,20.83
2018-04-20T06:47:30.265Z,20.96
2018-04-20T06:52:32.321Z,21.25
2018-04-20T06:57:33.636Z,21.56
2018-04-20T07:02:34.949Z,21.82
2018-04-20T07:07:36.237Z,22.07
2018-04-20T07:12:38.289Z,22.34
2018-04-20T07:17:39.604Z,22.52
2018-04-20T07:22:40.920Z,22.78
2018-04-20T07:27:42.959Z,23.06
2018-04-20T07:32:44.264Z,23.26
2018-04-20T07:37:45.598Z,23.61
2018-04-20T07:42:47.629Z,23.87
2018-04-20T07:47:48.954Z,24.03
2018-04-20T07:52:50.289Z,24.23
2018-04-20T07:57:52.325Z,24.40
2018-04-20T08:02:53.629Z,24.55
2018-04-20T08:07:54.934Z,24.76
2018-04-20T08:12:56.258Z,24.96
2018-04-20T08:17:58.295Z,25.16
2018-04-20T08:22:59.602Z,25.35
2018-04-20T08:28:00.929Z,25.51
2018-04-20T08:33:02.274Z,25.70
2018-04-20T08:38:03.630Z,25.95
2018-04-20T08:43:05.685Z,26.04
2018-04-20T08:48:07.005Z,26.26
2018-04-20T08:53:08.333Z,26.13
2018-04-20T08:58:09.669Z,26.20
2018-04-20T09:03:10.974Z,26.37
2018-04-20T09:08:12.302Z,26.60
2018-04-20T09:13:13.633Z,26.85
2018-04-20T09:18:14.956Z,26.83
2018-04-20T09:23:16.984Z,26.91
2018-04-20T09:28:18.290Z,26.82
2018-04-20T09:33:19.598Z,26.87
2018-04-20T09:38:20.912Z,27.18
2018-04-20T09:43:22.222Z,27.16
2018-04-20T09:48:24.282Z,27.28
2018-04-20T09:53:25.630Z,27.52
2018-04-20T09:58:26.925Z,27.68
2018-04-20T10:03:29.242Z,27.74
2018-04-20T10:08:30.621Z,27.69
2018-04-20T10:13:31.950Z,27.61
2018-04-20T10:18:33.278Z,27.74
2018-04-20T10:23:35.336Z,27.94
2018-04-20T10:28:36.622Z,27.99
2018-04-20T10:33:37.909Z,28.04
2018-04-20T10:38:39.210Z,28.07
2018-04-20T10:43:40.510Z,28.23
2018-04-20T10:48:41.816Z,28.27
2018-04-20T10:53:43.909Z,28.32
2018-04-20T10:58:45.989Z,28.21
2018-04-20T11:03:47.293Z,28.32
2018-04-20T11:08:48.591Z,28.52
2018-04-20T11:13:49.899Z,28.75
2018-04-20T11:18:51.688Z,28.74
2018-04-20T11:23:53.316Z,28.76
2018-04-20T11:28:55.369Z,28.79
2018-04-20T11:33:56.678Z,29.01
2018-04-20T11:38:57.993Z,29.36
2018-04-20T11:44:00.054Z,29.22
2018-04-20T11:49:01.383Z,29.15
2018-04-20T11:54:03.496Z,29.34
2018-04-20T11:59:04.810Z,29.29
2018-04-20T12:04:06.142Z,29.45
2018-04-20T12:09:15.653Z,29.43
2018-04-20T12:14:17.701Z,29.59
2018-04-20T12:19:25.996Z,29.51
2018-04-20T12:24:27.363Z,29.68
2018-04-20T12:29:29.446Z,29.70
2018-04-20T12:34:30.790Z,29.80
2018-04-20T12:39:32.093Z,29.85
2018-04-20T12:44:34.142Z,29.64
2018-04-20T12:49:35.462Z,29.80
2018-04-20T12:54:36.770Z,29.69
2018-04-20T12:59:38.834Z,29.93
2018-04-20T13:04:40.148Z,30.20
2018-04-20T13:09:41.469Z,30.22
2018-04-20T13:14:42.782Z,30.33
2018-04-20T13:19:44.103Z,30.36
2018-04-20T13:24:45.453Z,30.68
2018-04-20T13:29:46.751Z,30.41
2018-04-20T13:34:48.061Z,30.41
2018-04-20T13:39:49.577Z,30.57
2018-04-20T13:44:50.878Z,30.78
2018-04-20T13:49:52.449Z,30.91
2018-04-20T13:54:53.774Z,30.88
2018-04-20T13:59:55.819Z,31.11
2018-04-20T14:04:57.155Z,31.19
2018-04-20T14:09:58.481Z,31.15
2018-04-20T14:14:59.780Z,31.04
2018-04-20T14:20:01.152Z,30.99
2018-04-20T14:25:02.853Z,31.19
2018-04-20T14:30:04.181Z,31.31
2018-04-20T14:35:05.512Z,31.48
2018-04-20T14:40:07.574Z,31.63
2018-04-20T14:45:08.883Z,31.64
2018-04-20T14:50:10.223Z,31.51
2018-04-20T14:55:11.545Z,31.52
2018-04-20T15:00:12.870Z,31.32
2018-04-20T15:05:14.918Z,31.60
2018-04-20T15:10:16.258Z,31.80
2018-04-20T15:15:17.573Z,32.09
2018-04-20T15:20:18.909Z,32.19
2018-04-20T15:25:20.262Z,32.31
2018-04-20T15:30:21.581Z,32.00
2018-04-20T15:35:22.904Z,31.84
2018-04-20T15:40:24.226Z,31.80
2018-04-20T15:45:25.567Z,31.90
2018-04-20T15:50:26.894Z,31.88
2018-04-20T15:55:28.214Z,31.87
2018-04-20T16:00:29.525Z,31.75
2018-04-20T16:05:30.855Z,31.76
2018-04-20T16:10:32.909Z,31.83
2018-04-20T16:15:34.228Z,31.44
2018-04-20T16:20:35.553Z,31.37
2018-04-20T16:25:36.878Z,31.51
2018-04-20T16:30:38.223Z,31.54
2018-04-20T16:35:40.327Z,31.61
2018-04-20T16:40:42.402Z,31.52
2018-04-20T16:45:43.742Z,31.16
2018-04-20T16:50:45.058Z,30.84
2018-04-20T16:55:46.399Z,30.59
2018-04-20T17:00:48.458Z,30.41
2018-04-20T17:05:49.788Z,30.21
2018-04-20T17:10:51.118Z,30.03
2018-04-20T17:15:52.439Z,29.87
2018-04-20T17:20:53.773Z,29.80
2018-04-20T17:25:55.116Z,29.72
2018-04-20T17:30:56.440Z,29.61
2018-04-20T17:35:57.763Z,29.51
2018-04-20T17:40:59.106Z,29.47
2018-04-20T17:46:00.427Z,29.35
2018-04-20T17:51:01.792Z,29.15
2018-04-20T17:56:03.893Z,28.96
2018-04-20T18:01:05.208Z,28.86
2018-04-20T18:06:06.566Z,28.70
2018-04-20T18:11:07.922Z,28.52
2018-04-20T18:16:09.271Z,28.31
2018-04-20T18:21:10.698Z,28.07
2018-04-20T18:26:12.026Z,27.81
2018-04-20T18:31:13.366Z,27.58
2018-04-20T18:36:14.751Z,27.33
2018-04-20T18:41:16.104Z,26.99
2018-04-20T18:46:18.167Z,27.01
2018-04-20T18:51:19.458Z,26.93
2018-04-20T18:56:20.795Z,26.88
2018-04-20T19:01:22.875Z,26.69
2018-04-20T19:06:24.204Z,26.46
2018-04-20T19:11:26.278Z,26.35
2018-04-20T19:16:27.608Z,26.23
2018-04-20T19:21:28.940Z,26.06
2018-04-20T19:26:30.264Z,26.05
2018-04-20T19:31:32.329Z,26.06
2018-04-20T19:36:33.651Z,25.46
2018-04-20T19:41:34.967Z,25.09
2018-04-20T19:46:36.306Z,24.95
2018-04-20T19:51:37.640Z,25.04
2018-04-20T19:56:39.691Z,24.93
2018-04-20T20:01:41.023Z,24.91
2018-04-20T20:06:43.098Z,24.76
2018-04-20T20:11:45.440Z,24.68
2018-04-20T20:16:46.803Z,24.49
2018-04-20T20:21:48.150Z,24.50
2018-04-20T20:26:49.485Z,24.41
2018-04-20T20:31:50.794Z,24.33
2018-04-20T20:36:52.882Z,24.27
2018-04-20T20:41:54.196Z,24.27
2018-04-20T20:46:55.509Z,24.18
2018-04-20T20:51:56.844Z,24.06
2018-04-20T20:56:58.166Z,24.00
2018-04-20T21:02:00.210Z,23.99
2018-04-20T21:07:01.567Z,23.91
2018-04-20T21:12:03.632Z,23.81
2018-04-20T21:17:04.962Z,23.66
2018-04-20T21:22:07.013Z,23.48
2018-04-20T21:27:08.341Z,23.38
2018-04-20T21:32:09.633Z,23.23
2018-04-20T21:37:10.944Z,23.08
2018-04-20T21:42:13.793Z,22.81
2018-04-20T21:47:15.105Z,22.78
2018-04-20T21:52:16.467Z,22.74
2018-04-20T21:57:17.794Z,22.74
2018-04-20T22:02:19.102Z,22.45
2018-04-20T22:07:20.470Z,22.16
2018-04-20T22:12:21.789Z,22.11
2018-04-20T22:17:23.145Z,21.89
2018-04-20T22:22:24.459Z,21.88
2018-04-20T22:27:25.783Z,21.88
2018-04-20T22:32:27.144Z,21.72
2018-04-20T22:37:28.532Z,21.56
2018-04-20T22:42:29.848Z,21.35
2018-04-20T22:47:31.248Z,21.39
2018-04-20T22:52:32.666Z,21.40
2018-04-20T22:57:33.997Z,21.29
2018-04-20T23:02:35.407Z,21.22
2018-04-20T23:07:37.493Z,21.24
2018-04-20T23:12:38.834Z,21.16
2018-04-20T23:17:40.174Z,21.17
2018-04-20T23:22:41.532Z,21.11
2018-04-20T23:27:42.838Z,21.07
2018-04-20T23:32:44.179Z,21.01
2018-04-20T23:37:45.546Z,20.92
2018-04-20T23:42:47.587Z,20.84
2018-04-20T23:47:48.943Z,20.74
2018-04-20T23:52:51.027Z,20.64
2018-04-20T23:57:52.341Z,20.58
